createdAt,value
2023-05-09T00:00:22.128Z,14.90
2023-05-09T00:06:46.656Z,15.01
2023-05-09T00:12:34.969Z,15.18
2023-05-09T00:24:58.237Z,15.29
2023-05-09T00:30:45.032Z,15.26
2023-05-09T00:36:32.315Z,15.25
2023-05-09T00:42:20.770Z,15.26
2023-05-09T00:48:10.838Z,15.19
2023-05-09T00:53:57.657Z,15.19
2023-05-09T00:59:56.944Z,15.22
2023-05-09T01:05:50.026Z,15.26
2023-05-09T01:12:22.838Z,15.10
2023-05-09T01:18:43.402Z,15.20
2023-05-09T01:25:10.171Z,15.01
2023-05-09T01:31:10.294Z,15.03
2023-05-09T01:37:04.767Z,15.16
2023-05-09T01:43:18.535Z,15.09
2023-05-09T01:49:10.556Z,14.98
2023-05-09T01:55:03.189Z,14.88
2023-05-09T02:00:54.140Z,15.00
2023-05-09T02:06:42.744Z,14.89
2023-05-09T02:12:32.872Z,14.79
2023-05-09T02:18:29.629Z,14.80
2023-05-09T02:24:44.198Z,14.79
2023-05-09T02:30:48.576Z,14.75
2023-05-09T02:36:36.055Z,14.69
2023-05-09T02:42:25.599Z,14.81
2023-05-09T02:48:15.195Z,14.81
2023-05-09T02:54:01.909Z,14.77
2023-05-09T02:59:48.900Z,14.78
2023-05-09T03:05:39.755Z,14.78
2023-05-09T03:11:27.869Z,14.88
2023-05-09T03:17:21.559Z,14.97
2023-05-09T03:23:10.580Z,14.93
2023-05-09T03:29:05.881Z,15.07
2023-05-09T03:34:52.710Z,15.11
2023-05-09T03:40:39.765Z,14.95
2023-05-09T03:46:35.301Z,14.95
2023-05-09T03:52:23.024Z,14.94
2023-05-09T03:58:15.404Z,14.84
2023-05-09T04:04:06.717Z,15.02
2023-05-09T04:10:04.441Z,15.03
2023-05-09T04:15:51.873Z,15.02
2023-05-09T04:21:40.162Z,14.92
2023-05-09T04:27:39.458Z,14.85
2023-05-09T04:33:30.306Z,14.76
2023-05-09T04:39:23.643Z,14.55
2023-05-09T04:45:20.151Z,14.54
2023-05-09T04:51:08.213Z,14.51
2023-05-09T04:57:03.246Z,14.34
2023-05-09T05:02:57.563Z,14.62
2023-05-09T05:08:49.266Z,14.57
2023-05-09T05:14:37.986Z,14.72
2023-05-09T05:20:29.006Z,14.66
2023-05-09T05:26:18.534Z,14.60
2023-05-09T05:32:08.094Z,14.57
2023-05-09T05:37:56.350Z,14.61
2023-05-09T05:43:45.818Z,14.69
2023-05-09T05:49:39.771Z,14.83
2023-05-09T05:55:27.641Z,14.93
2023-05-09T06:01:17.444Z,15.11
2023-05-09T06:07:06.582Z,15.01
2023-05-09T06:13:00.282Z,15.04
2023-05-09T06:18:48.268Z,15.15
2023-05-09T06:24:37.122Z,14.91
2023-05-09T06:30:26.687Z,14.88
2023-05-09T06:36:21.940Z,14.88
2023-05-09T06:42:09.741Z,15.17
2023-05-09T06:48:43.940Z,15.16
2023-05-09T06:54:42.360Z,15.24
2023-05-09T07:00:29.413Z,15.42
2023-05-09T07:07:01.037Z,15.54
2023-05-09T07:12:58.142Z,15.61
2023-05-09T07:25:44.023Z,16.23
2023-05-09T07:31:37.328Z,16.47
2023-05-09T07:37:26.142Z,16.28
2023-05-09T07:43:17.790Z,16.67
2023-05-09T07:49:26.676Z,16.74
2023-05-09T07:55:20.630Z,16.91
2023-05-09T08:01:07.512Z,16.93
2023-05-09T08:07:13.269Z,16.86
2023-05-09T08:13:12.011Z,16.93
2023-05-09T08:19:07.950Z,16.93
2023-05-09T08:24:56.908Z,17.27
2023-05-09T08:30:46.593Z,17.54
2023-05-09T08:36:34.067Z,17.87
2023-05-09T08:42:25.498Z,17.98
2023-05-09T08:48:16.904Z,17.86
2023-05-09T08:54:05.610Z,18.05
2023-05-09T08:59:56.034Z,17.98
2023-05-09T09:05:44.669Z,18.60
2023-05-09T09:11:37.244Z,18.78
2023-05-09T09:17:28.253Z,18.75
2023-05-09T09:23:24.100Z,18.91
2023-05-09T09:29:15.784Z,18.69
2023-05-09T09:35:10.635Z,18.66
2023-05-09T09:40:58.918Z,18.79
2023-05-09T09:46:54.255Z,18.57
2023-05-09T09:53:14.474Z,18.80
2023-05-09T09:59:14.011Z,19.09
2023-05-09T10:05:08.125Z,19.29
2023-05-09T10:10:55.236Z,20.01
2023-05-09T10:16:45.309Z,20.46
2023-05-09T10:22:33.658Z,20.02
2023-05-09T10:28:26.358Z,19.66
2023-05-09T10:34:13.642Z,19.38
2023-05-09T10:40:05.211Z,19.11
2023-05-09T10:45:55.834Z,19.39
2023-05-09T10:51:45.383Z,19.85
2023-05-09T10:57:32.821Z,20.61
2023-05-09T11:03:22.924Z,21.00
2023-05-09T11:09:38.288Z,20.31
2023-05-09T11:15:27.533Z,19.99
2023-05-09T11:21:14.765Z,19.97
2023-05-09T11:27:01.701Z,19.66
2023-05-09T11:32:59.191Z,19.53
2023-05-09T11:38:51.614Z,18.83
2023-05-09T11:44:43.240Z,18.52
2023-05-09T11:50:31.644Z,18.44
2023-05-09T11:56:21.889Z,18.60
2023-05-09T12:02:09.297Z,18.64
2023-05-09T12:08:07.400Z,18.79
2023-05-09T12:13:54.658Z,19.16
2023-05-09T12:19:41.412Z,19.64
2023-05-09T12:25:34.640Z,20.04
2023-05-09T12:31:24.932Z,20.12
2023-05-09T12:37:19.731Z,20.50
2023-05-09T12:43:07.949Z,20.84
2023-05-09T12:48:57.947Z,21.28
2023-05-09T12:54:47.902Z,21.64
2023-05-09T13:00:48.539Z,22.40
2023-05-09T13:06:48.162Z,22.39
2023-05-09T13:12:36.155Z,21.94
2023-05-09T13:18:24.542Z,21.99
2023-05-09T13:24:13.613Z,21.73
2023-05-09T13:30:01.135Z,21.31
2023-05-09T13:35:55.677Z,21.00
2023-05-09T13:41:53.478Z,20.70
2023-05-09T13:47:42.891Z,20.53
2023-05-09T13:53:33.141Z,20.66
2023-05-09T13:59:21.750Z,20.67
2023-05-09T14:05:35.931Z,20.25
2023-05-09T14:11:39.127Z,20.57
2023-05-09T14:17:33.432Z,20.43
2023-05-09T14:23:20.532Z,20.14
2023-05-09T14:29:12.927Z,20.06
2023-05-09T14:35:02.288Z,20.31
2023-05-09T14:41:01.288Z,21.24
2023-05-09T14:47:04.979Z,21.81
2023-05-09T14:53:11.060Z,21.84
2023-05-09T14:58:58.515Z,21.75
2023-05-09T15:04:51.688Z,21.60
2023-05-09T15:10:38.866Z,21.27
2023-05-09T15:16:26.844Z,20.95
2023-05-09T15:22:15.269Z,20.39
2023-05-09T15:28:04.427Z,19.92
2023-05-09T15:33:51.735Z,19.88
2023-05-09T15:39:43.768Z,19.90
2023-05-09T15:45:45.308Z,19.68
2023-05-09T15:51:37.869Z,19.69
2023-05-09T15:57:28.826Z,19.66
2023-05-09T16:03:20.930Z,19.58
2023-05-09T16:09:08.845Z,19.35
2023-05-09T16:14:55.956Z,19.66
2023-05-09T16:20:45.449Z,19.47
2023-05-09T16:26:32.936Z,18.93
2023-05-09T16:32:32.068Z,18.94
2023-05-09T16:45:57.443Z,19.11
2023-05-09T17:05:53.172Z,19.93
2023-05-09T17:12:37.564Z,19.81
2023-05-09T17:34:36.624Z,19.31
2023-05-09T17:40:42.574Z,18.99
2023-05-09T17:47:14.210Z,18.67
2023-05-09T17:53:39.558Z,18.58
2023-05-09T17:59:28.811Z,18.40
2023-05-09T18:05:26.685Z,18.04
2023-05-09T18:11:14.752Z,17.57
2023-05-09T18:17:02.648Z,17.46
2023-05-09T18:22:52.351Z,17.84
2023-05-09T18:28:39.894Z,17.86
2023-05-09T18:34:28.335Z,17.80
2023-05-09T18:40:16.216Z,17.74
2023-05-09T18:46:03.833Z,17.35
2023-05-09T18:51:51.013Z,16.66
2023-05-09T18:57:51.557Z,16.40
2023-05-09T19:03:46.222Z,15.91
2023-05-09T19:09:34.142Z,15.08
2023-05-09T19:24:05.315Z,15.67
2023-05-09T19:29:13.745Z,15.54
2023-05-09T19:35:01.260Z,15.57
2023-05-09T19:40:48.425Z,15.41
2023-05-09T19:46:39.995Z,15.44
2023-05-09T19:52:27.910Z,15.51
2023-05-09T19:58:17.441Z,15.78
2023-05-09T20:04:04.995Z,15.56
2023-05-09T20:09:53.326Z,15.54
2023-05-09T20:15:42.510Z,15.51
2023-05-09T20:21:44.655Z,15.51
2023-05-09T20:27:40.056Z,15.36
2023-05-09T20:41:05.408Z,15.55
2023-05-09T20:47:16.025Z,15.44
2023-05-09T20:59:43.636Z,15.33
2023-05-09T21:05:52.702Z,15.28
2023-05-09T21:12:23.447Z,15.24
2023-05-09T21:18:44.667Z,15.07
2023-05-09T21:24:31.550Z,15.11
2023-05-09T21:30:18.536Z,15.04
2023-05-09T21:36:11.194Z,14.86
2023-05-09T21:42:02.351Z,14.71
2023-05-09T21:47:51.402Z,14.82
2023-05-09T21:53:41.200Z,14.74
2023-05-09T21:59:28.205Z,14.72
2023-05-09T22:05:44.045Z,14.49
2023-05-09T22:11:30.915Z,14.36
2023-05-09T22:17:17.981Z,14.33
2023-05-09T22:23:33.395Z,14.20
2023-05-09T22:29:27.985Z,14.17
2023-05-09T22:36:54.442Z,14.09
2023-05-09T22:42:41.347Z,14.17
2023-05-09T22:48:30.254Z,14.22
2023-05-09T22:54:21.618Z,14.04
2023-05-09T23:00:21.150Z,13.88
2023-05-09T23:06:08.356Z,13.76
2023-05-09T23:11:59.627Z,13.65
2023-05-09T23:17:47.912Z,13.75
2023-05-09T23:23:37.152Z,13.74
2023-05-09T23:29:25.524Z,13.57
2023-05-09T23:35:13.809Z,13.49
2023-05-09T23:41:01.333Z,13.39
2023-05-09T23:46:48.217Z,13.46
2023-05-09T23:52:37.154Z,13.57
2023-05-09T23:58:23.877Z,13.46
